sensor_id;sensor_type;location;lat;lon;timestamp;temperature;humidity
31783;DHT22;18351;47.560;9.708;2023-04-03T00:01:28;6.10;99.90
31783;DHT22;18351;47.560;9.708;2023-04-03T00:03:54;6.00;99.90
31783;DHT22;18351;47.560;9.708;2023-04-03T00:06:20;6.00;99.90
31783;DHT22;18351;47.560;9.708;2023-04-03T00:08:46;6.00;99.90
31783;DHT22;18351;47.560;9.708;2023-04-03T00:11:12;6.00;99.90
31783;DHT22;18351;47.560;9.708;2023-04-03T00:13:38;6.00;99.90
31783;DHT22;18351;47.560;9.708;2023-04-03T00:16:05;6.00;99.90
31783;DHT22;18351;47.560;9.708;2023-04-03T00:18:31;5.90;99.90
31783;DHT22;18351;47.560;9.708;2023-04-03T00:20:57;5.90;99.90
31783;DHT22;18351;47.560;9.708;2023-04-03T00:23:23;5.90;99.90
31783;DHT22;18351;47.560;9.708;2023-04-03T00:25:49;5.80;99.90
31783;DHT22;18351;47.560;9.708;2023-04-03T00:28:15;5.80;99.90
31783;DHT22;18351;47.560;9.708;2023-04-03T00:30:40;5.80;99.90
31783;DHT22;18351;47.560;9.708;2023-04-03T00:33:06;5.70;99.90
31783;DHT22;18351;47.560;9.708;2023-04-03T00:35:32;5.70;99.90
31783;DHT22;18351;47.560;9.708;2023-04-03T00:37:59;5.60;99.90
31783;DHT22;18351;47.560;9.708;2023-04-03T00:40:26;5.60;99.90
31783;DHT22;18351;47.560;9.708;2023-04-03T00:42:56;5.50;99.90
31783;DHT22;18351;47.560;9.708;2023-04-03T00:45:46;5.50;99.90
31783;DHT22;18351;47.560;9.708;2023-04-03T00:48:15;5.40;99.90
31783;DHT22;18351;47.560;9.708;2023-04-03T00:50:43;5.30;99.90
31783;DHT22;18351;47.560;9.708;2023-04-03T00:53:13;5.40;99.90
31783;DHT22;18351;47.560;9.708;2023-04-03T00:55:41;5.30;99.90
31783;DHT22;18351;47.560;9.708;2023-04-03T00:58:08;5.20;99.90
31783;DHT22;18351;47.560;9.708;2023-04-03T01:00:37;5.20;99.90
31783;DHT22;18351;47.560;9.708;2023-04-03T01:03:02;5.10;99.90
31783;DHT22;18351;47.560;9.708;2023-04-03T01:05:28;5.20;99.90
31783;DHT22;18351;47.560;9.708;2023-04-03T01:07:54;5.10;99.90
31783;DHT22;18351;47.560;9.708;2023-04-03T01:10:21;5.00;99.90
31783;DHT22;18351;47.560;9.708;2023-04-03T01:12:49;5.00;99.90
31783;DHT22;18351;47.560;9.708;2023-04-03T01:15:22;5.00;99.90
31783;DHT22;18351;47.560;9.708;2023-04-03T01:17:53;4.90;99.90
31783;DHT22;18351;47.560;9.708;2023-04-03T01:25:36;4.80;99.90
31783;DHT22;18351;47.560;9.708;2023-04-03T01:28:03;4.70;99.90
31783;DHT22;18351;47.560;9.708;2023-04-03T01:30:33;4.60;99.90
31783;DHT22;18351;47.560;9.708;2023-04-03T01:32:59;4.50;99.90
31783;DHT22;18351;47.560;9.708;2023-04-03T01:35:25;4.50;99.90
31783;DHT22;18351;47.560;9.708;2023-04-03T01:37:50;4.40;99.90
31783;DHT22;18351;47.560;9.708;2023-04-03T01:40:16;4.30;99.90
31783;DHT22;18351;47.560;9.708;2023-04-03T01:42:42;4.30;99.90
31783;DHT22;18351;47.560;9.708;2023-04-03T01:45:08;4.20;99.90
31783;DHT22;18351;47.560;9.708;2023-04-03T01:47:33;4.20;99.90
31783;DHT22;18351;47.560;9.708;2023-04-03T01:49:59;4.10;99.90
31783;DHT22;18351;47.560;9.708;2023-04-03T01:52:24;4.00;99.90
31783;DHT22;18351;47.560;9.708;2023-04-03T01:54:50;4.00;99.90
31783;DHT22;18351;47.560;9.708;2023-04-03T01:57:16;3.90;99.90
31783;DHT22;18351;47.560;9.708;2023-04-03T01:59:42;3.80;99.90
31783;DHT22;18351;47.560;9.708;2023-04-03T02:02:07;3.80;99.90
31783;DHT22;18351;47.560;9.708;2023-04-03T02:04:33;3.70;99.90
31783;DHT22;18351;47.560;9.708;2023-04-03T02:06:58;3.70;99.90
31783;DHT22;18351;47.560;9.708;2023-04-03T02:09:24;3.60;99.90
31783;DHT22;18351;47.560;9.708;2023-04-03T02:11:49;3.60;99.90
31783;DHT22;18351;47.560;9.708;2023-04-03T02:14:15;3.60;99.90
31783;DHT22;18351;47.560;9.708;2023-04-03T02:16:40;3.60;99.90
31783;DHT22;18351;47.560;9.708;2023-04-03T02:19:06;3.60;99.90
31783;DHT22;18351;47.560;9.708;2023-04-03T02:21:31;3.50;99.90
31783;DHT22;18351;47.560;9.708;2023-04-03T02:23:57;3.50;99.90
31783;DHT22;18351;47.560;9.708;2023-04-03T02:26:23;3.40;99.90
31783;DHT22;18351;47.560;9.708;2023-04-03T02:28:48;3.40;99.90
31783;DHT22;18351;47.560;9.708;2023-04-03T02:31:14;3.40;99.90
31783;DHT22;18351;47.560;9.708;2023-04-03T02:33:40;3.40;99.90
31783;DHT22;18351;47.560;9.708;2023-04-03T02:36:07;3.30;99.90
31783;DHT22;18351;47.560;9.708;2023-04-03T02:38:33;3.30;99.90
31783;DHT22;18351;47.560;9.708;2023-04-03T02:41:03;3.30;99.90
31783;DHT22;18351;47.560;9.708;2023-04-03T02:43:29;3.20;99.90
31783;DHT22;18351;47.560;9.708;2023-04-03T02:45:54;3.10;99.90
31783;DHT22;18351;47.560;9.708;2023-04-03T02:48:20;3.10;99.90
31783;DHT22;18351;47.560;9.708;2023-04-03T02:50:46;3.10;99.90
31783;DHT22;18351;47.560;9.708;2023-04-03T02:53:11;3.10;99.90
31783;DHT22;18351;47.560;9.708;2023-04-03T02:55:37;3.00;99.90
31783;DHT22;18351;47.560;9.708;2023-04-03T02:58:02;3.00;99.90
31783;DHT22;18351;47.560;9.708;2023-04-03T03:00:29;3.00;99.90
31783;DHT22;18351;47.560;9.708;2023-04-03T03:02:55;3.00;99.90
31783;DHT22;18351;47.560;9.708;2023-04-03T03:05:20;3.00;99.90
31783;DHT22;18351;47.560;9.708;2023-04-03T03:07:47;3.00;99.90
31783;DHT22;18351;47.560;9.708;2023-04-03T03:10:12;2.90;99.90
31783;DHT22;18351;47.560;9.708;2023-04-03T03:12:38;2.90;99.90
31783;DHT22;18351;47.560;9.708;2023-04-03T03:15:04;2.90;99.90
31783;DHT22;18351;47.560;9.708;2023-04-03T03:17:30;2.90;99.90
31783;DHT22;18351;47.560;9.708;2023-04-03T03:19:55;2.90;99.90
31783;DHT22;18351;47.560;9.708;2023-04-03T03:22:21;2.90;99.90
31783;DHT22;18351;47.560;9.708;2023-04-03T03:24:46;2.80;99.90
31783;DHT22;18351;47.560;9.708;2023-04-03T03:27:12;2.80;99.90
31783;DHT22;18351;47.560;9.708;2023-04-03T03:29:37;2.80;99.90
31783;DHT22;18351;47.560;9.708;2023-04-03T03:32:03;2.80;99.90
31783;DHT22;18351;47.560;9.708;2023-04-03T03:34:29;2.80;99.90
31783;DHT22;18351;47.560;9.708;2023-04-03T03:36:54;2.80;99.90
31783;DHT22;18351;47.560;9.708;2023-04-03T03:39:20;2.80;99.90
31783;DHT22;18351;47.560;9.708;2023-04-03T03:41:46;2.80;99.90
31783;DHT22;18351;47.560;9.708;2023-04-03T03:44:12;2.80;99.90
31783;DHT22;18351;47.560;9.708;2023-04-03T03:46:38;2.80;99.90
31783;DHT22;18351;47.560;9.708;2023-04-03T03:49:03;2.80;99.90
31783;DHT22;18351;47.560;9.708;2023-04-03T03:51:29;2.80;99.90
31783;DHT22;18351;47.560;9.708;2023-04-03T03:53:54;2.90;99.90
31783;DHT22;18351;47.560;9.708;2023-04-03T03:56:20;2.90;99.90
31783;DHT22;18351;47.560;9.708;2023-04-03T03:58:46;2.90;99.90
31783;DHT22;18351;47.560;9.708;2023-04-03T04:01:11;3.00;99.90
31783;DHT22;18351;47.560;9.708;2023-04-03T04:03:37;3.00;99.90
31783;DHT22;18351;47.560;9.708;2023-04-03T04:06:03;3.10;99.90
31783;DHT22;18351;47.560;9.708;2023-04-03T04:08:28;3.00;99.90
31783;DHT22;18351;47.560;9.708;2023-04-03T04:10:54;3.00;99.90
31783;DHT22;18351;47.560;9.708;2023-04-03T04:13:19;3.00;99.90
31783;DHT22;18351;47.560;9.708;2023-04-03T04:15:45;3.10;99.90
31783;DHT22;18351;47.560;9.708;2023-04-03T04:18:11;3.10;99.90
31783;DHT22;18351;47.560;9.708;2023-04-03T04:20:36;3.10;99.90
31783;DHT22;18351;47.560;9.708;2023-04-03T04:23:02;3.10;99.90
31783;DHT22;18351;47.560;9.708;2023-04-03T04:25:27;3.10;99.90
31783;DHT22;18351;47.560;9.708;2023-04-03T04:27:53;3.20;99.90
31783;DHT22;18351;47.560;9.708;2023-04-03T04:30:19;3.10;99.90
31783;DHT22;18351;47.560;9.708;2023-04-03T04:32:44;3.10;99.90
31783;DHT22;18351;47.560;9.708;2023-04-03T04:35:10;3.20;99.90
31783;DHT22;18351;47.560;9.708;2023-04-03T04:37:35;3.20;99.90
31783;DHT22;18351;47.560;9.708;2023-04-03T04:40:01;3.20;99.90
31783;DHT22;18351;47.560;9.708;2023-04-03T04:42:27;3.20;99.90
31783;DHT22;18351;47.560;9.708;2023-04-03T04:44:53;3.20;99.90
31783;DHT22;18351;47.560;9.708;2023-04-03T04:47:19;3.30;99.90
31783;DHT22;18351;47.560;9.708;2023-04-03T04:49:44;3.20;99.90
31783;DHT22;18351;47.560;9.708;2023-04-03T04:52:10;3.30;99.90
31783;DHT22;18351;47.560;9.708;2023-04-03T04:54:36;3.30;99.90
31783;DHT22;18351;47.560;9.708;2023-04-03T04:57:01;3.30;99.90
31783;DHT22;18351;47.560;9.708;2023-04-03T04:59:27;3.30;99.90
31783;DHT22;18351;47.560;9.708;2023-04-03T05:01:52;3.30;99.90
31783;DHT22;18351;47.560;9.708;2023-04-03T05:04:18;3.30;99.90
31783;DHT22;18351;47.560;9.708;2023-04-03T05:06:44;3.30;99.90
31783;DHT22;18351;47.560;9.708;2023-04-03T05:09:09;3.30;99.90
31783;DHT22;18351;47.560;9.708;2023-04-03T05:11:35;3.40;99.90
31783;DHT22;18351;47.560;9.708;2023-04-03T05:14:01;3.40;99.90
31783;DHT22;18351;47.560;9.708;2023-04-03T05:16:27;3.40;99.90
31783;DHT22;18351;47.560;9.708;2023-04-03T05:18:53;3.40;99.90
31783;DHT22;18351;47.560;9.708;2023-04-03T05:21:18;3.40;99.90
31783;DHT22;18351;47.560;9.708;2023-04-03T05:23:44;3.40;99.90
31783;DHT22;18351;47.560;9.708;2023-04-03T05:26:10;3.40;99.90
31783;DHT22;18351;47.560;9.708;2023-04-03T05:28:35;3.50;99.90
31783;DHT22;18351;47.560;9.708;2023-04-03T05:31:02;3.50;99.90
31783;DHT22;18351;47.560;9.708;2023-04-03T05:33:27;3.50;99.90
31783;DHT22;18351;47.560;9.708;2023-04-03T05:35:54;3.60;99.90
31783;DHT22;18351;47.560;9.708;2023-04-03T05:38:19;3.60;99.90
31783;DHT22;18351;47.560;9.708;2023-04-03T05:40:45;3.60;99.90
31783;DHT22;18351;47.560;9.708;2023-04-03T05:43:12;3.60;99.90
31783;DHT22;18351;47.560;9.708;2023-04-03T05:45:38;3.60;99.90
31783;DHT22;18351;47.560;9.708;2023-04-03T05:48:03;3.60;99.90
31783;DHT22;18351;47.560;9.708;2023-04-03T05:50:29;3.60;99.90
31783;DHT22;18351;47.560;9.708;2023-04-03T05:52:57;3.70;99.90
31783;DHT22;18351;47.560;9.708;2023-04-03T05:55:24;3.70;99.90
31783;DHT22;18351;47.560;9.708;2023-04-03T05:57:50;3.70;99.90
31783;DHT22;18351;47.560;9.708;2023-04-03T06:00:16;3.70;99.90
31783;DHT22;18351;47.560;9.708;2023-04-03T06:02:42;3.80;99.90
31783;DHT22;18351;47.560;9.708;2023-04-03T06:05:09;3.80;99.90
31783;DHT22;18351;47.560;9.708;2023-04-03T06:07:34;3.80;99.90
31783;DHT22;18351;47.560;9.708;2023-04-03T06:10:01;3.90;99.90
31783;DHT22;18351;47.560;9.708;2023-04-03T06:12:27;3.90;99.90
31783;DHT22;18351;47.560;9.708;2023-04-03T06:14:55;3.90;99.90
31783;DHT22;18351;47.560;9.708;2023-04-03T06:17:21;3.90;99.90
31783;DHT22;18351;47.560;9.708;2023-04-03T06:19:46;3.90;99.90
31783;DHT22;18351;47.560;9.708;2023-04-03T06:22:12;3.90;99.90
31783;DHT22;18351;47.560;9.708;2023-04-03T06:24:38;3.90;99.90
31783;DHT22;18351;47.560;9.708;2023-04-03T06:27:04;4.00;99.90
31783;DHT22;18351;47.560;9.708;2023-04-03T06:29:30;3.90;99.90
31783;DHT22;18351;47.560;9.708;2023-04-03T06:31:56;3.90;99.90
31783;DHT22;18351;47.560;9.708;2023-04-03T06:34:22;4.00;99.90
31783;DHT22;18351;47.560;9.708;2023-04-03T06:36:47;4.00;99.90
31783;DHT22;18351;47.560;9.708;2023-04-03T06:39:16;3.90;99.90
31783;DHT22;18351;47.560;9.708;2023-04-03T06:41:42;4.00;99.90
31783;DHT22;18351;47.560;9.708;2023-04-03T06:44:08;4.00;99.90
31783;DHT22;18351;47.560;9.708;2023-04-03T06:46:37;4.10;99.90
31783;DHT22;18351;47.560;9.708;2023-04-03T06:49:02;4.10;99.90
31783;DHT22;18351;47.560;9.708;2023-04-03T06:51:29;4.10;99.90
31783;DHT22;18351;47.560;9.708;2023-04-03T06:53:57;4.10;99.90
31783;DHT22;18351;47.560;9.708;2023-04-03T06:56:23;4.10;99.90
31783;DHT22;18351;47.560;9.708;2023-04-03T06:58:49;4.10;99.90
31783;DHT22;18351;47.560;9.708;2023-04-03T07:01:17;4.20;99.90
31783;DHT22;18351;47.560;9.708;2023-04-03T07:03:44;4.20;99.90
31783;DHT22;18351;47.560;9.708;2023-04-03T07:06:12;4.20;99.90
31783;DHT22;18351;47.560;9.708;2023-04-03T07:08:39;4.20;99.90
31783;DHT22;18351;47.560;9.708;2023-04-03T07:11:06;4.30;99.90
31783;DHT22;18351;47.560;9.708;2023-04-03T07:13:32;4.30;99.90
31783;DHT22;18351;47.560;9.708;2023-04-03T07:15:58;4.30;99.90
31783;DHT22;18351;47.560;9.708;2023-04-03T07:18:24;4.40;99.90
31783;DHT22;18351;47.560;9.708;2023-04-03T07:20:50;4.40;99.90
31783;DHT22;18351;47.560;9.708;2023-04-03T07:23:16;4.50;99.90
31783;DHT22;18351;47.560;9.708;2023-04-03T07:25:45;4.50;99.90
31783;DHT22;18351;47.560;9.708;2023-04-03T07:28:12;4.50;99.90
31783;DHT22;18351;47.560;9.708;2023-04-03T07:30:48;4.50;99.90
31783;DHT22;18351;47.560;9.708;2023-04-03T07:33:15;4.50;99.90
31783;DHT22;18351;47.560;9.708;2023-04-03T07:35:42;4.60;99.90
31783;DHT22;18351;47.560;9.708;2023-04-03T07:38:08;4.60;99.90
31783;DHT22;18351;47.560;9.708;2023-04-03T07:40:34;4.60;99.90
31783;DHT22;18351;47.560;9.708;2023-04-03T07:43:00;4.60;99.90
31783;DHT22;18351;47.560;9.708;2023-04-03T07:45:26;4.70;99.90
31783;DHT22;18351;47.560;9.708;2023-04-03T07:47:52;4.80;99.90
31783;DHT22;18351;47.560;9.708;2023-04-03T07:50:18;4.80;99.90
31783;DHT22;18351;47.560;9.708;2023-04-03T07:52:44;4.90;99.90
31783;DHT22;18351;47.560;9.708;2023-04-03T07:55:10;4.90;99.90
31783;DHT22;18351;47.560;9.708;2023-04-03T07:57:36;4.90;99.90
31783;DHT22;18351;47.560;9.708;2023-04-03T08:00:04;4.90;99.90
31783;DHT22;18351;47.560;9.708;2023-04-03T08:02:30;4.90;99.90
31783;DHT22;18351;47.560;9.708;2023-04-03T08:04:57;5.00;99.90
31783;DHT22;18351;47.560;9.708;2023-04-03T08:07:23;5.10;99.90
31783;DHT22;18351;47.560;9.708;2023-04-03T08:09:49;5.20;99.90
31783;DHT22;18351;47.560;9.708;2023-04-03T08:12:14;5.20;99.90
31783;DHT22;18351;47.560;9.708;2023-04-03T08:14:40;5.30;99.90
31783;DHT22;18351;47.560;9.708;2023-04-03T08:17:06;5.30;99.90
31783;DHT22;18351;47.560;9.708;2023-04-03T08:19:34;5.30;99.90
31783;DHT22;18351;47.560;9.708;2023-04-03T08:22:00;5.30;99.90
31783;DHT22;18351;47.560;9.708;2023-04-03T08:24:28;5.30;99.90
31783;DHT22;18351;47.560;9.708;2023-04-03T08:26:54;5.30;99.90
31783;DHT22;18351;47.560;9.708;2023-04-03T08:29:20;5.40;99.90
31783;DHT22;18351;47.560;9.708;2023-04-03T08:31:46;5.30;99.90
31783;DHT22;18351;47.560;9.708;2023-04-03T08:34:13;5.30;99.90
31783;DHT22;18351;47.560;9.708;2023-04-03T08:36:38;5.40;99.90
31783;DHT22;18351;47.560;9.708;2023-04-03T08:39:04;5.40;99.90
31783;DHT22;18351;47.560;9.708;2023-04-03T08:44:03;5.50;99.90
31783;DHT22;18351;47.560;9.708;2023-04-03T08:49:42;5.50;99.90
31783;DHT22;18351;47.560;9.708;2023-04-03T08:55:02;5.60;99.90
31783;DHT22;18351;47.560;9.708;2023-04-03T08:57:35;5.70;99.90
31783;DHT22;18351;47.560;9.708;2023-04-03T09:02:48;5.90;99.90
31783;DHT22;18351;47.560;9.708;2023-04-03T09:05:17;5.90;99.90
31783;DHT22;18351;47.560;9.708;2023-04-03T09:07:53;5.90;99.90
31783;DHT22;18351;47.560;9.708;2023-04-03T09:10:32;6.00;99.90
31783;DHT22;18351;47.560;9.708;2023-04-03T09:13:07;6.10;99.90
31783;DHT22;18351;47.560;9.708;2023-04-03T09:15:33;6.10;99.90
31783;DHT22;18351;47.560;9.708;2023-04-03T09:18:30;6.10;99.90
31783;DHT22;18351;47.560;9.708;2023-04-03T09:21:19;6.10;99.90
31783;DHT22;18351;47.560;9.708;2023-04-03T09:26:19;6.30;99.90
31783;DHT22;18351;47.560;9.708;2023-04-03T09:28:46;6.20;99.90
31783;DHT22;18351;47.560;9.708;2023-04-03T09:31:39;6.30;99.90
31783;DHT22;18351;47.560;9.708;2023-04-03T09:34:37;6.30;99.90
31783;DHT22;18351;47.560;9.708;2023-04-03T09:37:06;6.50;99.90
31783;DHT22;18351;47.560;9.708;2023-04-03T09:39:51;6.70;99.90
31783;DHT22;18351;47.560;9.708;2023-04-03T09:42:21;6.50;99.90
31783;DHT22;18351;47.560;9.708;2023-04-03T09:45:02;6.50;99.90
31783;DHT22;18351;47.560;9.708;2023-04-03T09:47:34;6.50;99.90
31783;DHT22;18351;47.560;9.708;2023-04-03T09:52:43;6.60;99.90
31783;DHT22;18351;47.560;9.708;2023-04-03T09:55:25;6.70;99.90
31783;DHT22;18351;47.560;9.708;2023-04-03T09:57:58;6.70;99.90
31783;DHT22;18351;47.560;9.708;2023-04-03T10:00:34;6.80;99.90
31783;DHT22;18351;47.560;9.708;2023-04-03T10:03:01;6.80;99.90
31783;DHT22;18351;47.560;9.708;2023-04-03T10:05:36;6.90;99.90
31783;DHT22;18351;47.560;9.708;2023-04-03T10:10:46;7.20;99.90
31783;DHT22;18351;47.560;9.708;2023-04-03T10:13:18;7.40;99.90
31783;DHT22;18351;47.560;9.708;2023-04-03T10:15:56;7.40;99.90
31783;DHT22;18351;47.560;9.708;2023-04-03T10:22:02;7.40;99.90
31783;DHT22;18351;47.560;9.708;2023-04-03T10:34:28;8.10;99.90
31783;DHT22;18351;47.560;9.708;2023-04-03T10:42:35;8.20;99.90
31783;DHT22;18351;47.560;9.708;2023-04-03T10:45:23;8.20;99.90
31783;DHT22;18351;47.560;9.708;2023-04-03T10:48:07;8.20;99.90
31783;DHT22;18351;47.560;9.708;2023-04-03T10:51:05;8.00;99.90
31783;DHT22;18351;47.560;9.708;2023-04-03T10:53:41;8.00;99.90
31783;DHT22;18351;47.560;9.708;2023-04-03T10:56:30;7.70;99.90
31783;DHT22;18351;47.560;9.708;2023-04-03T10:59:02;8.00;99.90
31783;DHT22;18351;47.560;9.708;2023-04-03T11:01:35;8.10;99.90
31783;DHT22;18351;47.560;9.708;2023-04-03T11:04:04;8.20;99.90
31783;DHT22;18351;47.560;9.708;2023-04-03T11:06:36;8.20;99.90
31783;DHT22;18351;47.560;9.708;2023-04-03T11:09:12;8.20;99.90
31783;DHT22;18351;47.560;9.708;2023-04-03T11:11:43;8.30;99.90
31783;DHT22;18351;47.560;9.708;2023-04-03T11:14:15;8.30;99.80
31783;DHT22;18351;47.560;9.708;2023-04-03T11:19:49;8.40;99.00
31783;DHT22;18351;47.560;9.708;2023-04-03T11:22:32;8.40;99.10
31783;DHT22;18351;47.560;9.708;2023-04-03T11:30:30;8.50;98.70
31783;DHT22;18351;47.560;9.708;2023-04-03T11:35:29;8.50;98.30
31783;DHT22;18351;47.560;9.708;2023-04-03T11:37:56;8.50;96.30
31783;DHT22;18351;47.560;9.708;2023-04-03T11:40:26;8.50;96.40
31783;DHT22;18351;47.560;9.708;2023-04-03T11:43:02;8.40;97.20
31783;DHT22;18351;47.560;9.708;2023-04-03T11:50:45;8.40;95.00
31783;DHT22;18351;47.560;9.708;2023-04-03T11:58:19;8.60;96.50
31783;DHT22;18351;47.560;9.708;2023-04-03T12:16:32;8.90;93.00
31783;DHT22;18351;47.560;9.708;2023-04-03T12:37:17;8.80;90.20
31783;DHT22;18351;47.560;9.708;2023-04-03T12:40:00;8.80;90.40
31783;DHT22;18351;47.560;9.708;2023-04-03T12:47:36;8.60;92.40
31783;DHT22;18351;47.560;9.708;2023-04-03T12:50:13;8.70;92.60
31783;DHT22;18351;47.560;9.708;2023-04-03T12:52:45;9.00;91.40
31783;DHT22;18351;47.560;9.708;2023-04-03T12:55:20;9.00;90.70
31783;DHT22;18351;47.560;9.708;2023-04-03T12:57:45;9.00;90.80
31783;DHT22;18351;47.560;9.708;2023-04-03T13:00:31;8.70;91.00
31783;DHT22;18351;47.560;9.708;2023-04-03T13:02:59;8.60;91.50
31783;DHT22;18351;47.560;9.708;2023-04-03T13:05:25;8.70;91.90
31783;DHT22;18351;47.560;9.708;2023-04-03T13:08:01;8.80;91.00
31783;DHT22;18351;47.560;9.708;2023-04-03T13:10:28;8.70;91.00
31783;DHT22;18351;47.560;9.708;2023-04-03T13:12:56;8.60;90.60
31783;DHT22;18351;47.560;9.708;2023-04-03T13:15:29;8.50;90.90
31783;DHT22;18351;47.560;9.708;2023-04-03T13:17:56;8.40;91.00
31783;DHT22;18351;47.560;9.708;2023-04-03T13:20:26;8.50;91.70
31783;DHT22;18351;47.560;9.708;2023-04-03T13:23:04;8.70;91.40
31783;DHT22;18351;47.560;9.708;2023-04-03T13:25:33;8.60;90.40
31783;DHT22;18351;47.560;9.708;2023-04-03T13:28:01;8.60;90.00
31783;DHT22;18351;47.560;9.708;2023-04-03T13:30:30;8.60;90.00
31783;DHT22;18351;47.560;9.708;2023-04-03T13:33:00;8.70;90.80
31783;DHT22;18351;47.560;9.708;2023-04-03T13:35:37;8.70;90.50
31783;DHT22;18351;47.560;9.708;2023-04-03T13:38:21;8.60;88.60
31783;DHT22;18351;47.560;9.708;2023-04-03T13:40:54;8.60;89.40
31783;DHT22;18351;47.560;9.708;2023-04-03T13:43:24;8.40;87.90
31783;DHT22;18351;47.560;9.708;2023-04-03T13:48:44;8.20;88.20
31783;DHT22;18351;47.560;9.708;2023-04-03T13:54:10;8.30;87.80
31783;DHT22;18351;47.560;9.708;2023-04-03T13:56:39;8.30;86.20
31783;DHT22;18351;47.560;9.708;2023-04-03T14:01:55;8.10;85.60
31783;DHT22;18351;47.560;9.708;2023-04-03T14:04:55;8.00;87.60
31783;DHT22;18351;47.560;9.708;2023-04-03T14:07:24;8.00;86.60
31783;DHT22;18351;47.560;9.708;2023-04-03T14:09:49;7.90;87.50
31783;DHT22;18351;47.560;9.708;2023-04-03T14:12:21;7.90;89.50
31783;DHT22;18351;47.560;9.708;2023-04-03T14:14:49;8.00;86.80
31783;DHT22;18351;47.560;9.708;2023-04-03T14:17:18;8.10;88.40
31783;DHT22;18351;47.560;9.708;2023-04-03T14:19:44;8.00;85.70
31783;DHT22;18351;47.560;9.708;2023-04-03T14:22:17;8.00;86.50
31783;DHT22;18351;47.560;9.708;2023-04-03T14:24:45;8.00;88.60
31783;DHT22;18351;47.560;9.708;2023-04-03T14:27:27;8.00;87.60
31783;DHT22;18351;47.560;9.708;2023-04-03T14:29:55;8.10;84.80
31783;DHT22;18351;47.560;9.708;2023-04-03T14:32:22;8.00;84.70
31783;DHT22;18351;47.560;9.708;2023-04-03T14:34:50;7.80;85.10
31783;DHT22;18351;47.560;9.708;2023-04-03T14:37:19;7.90;86.50
31783;DHT22;18351;47.560;9.708;2023-04-03T14:39:46;7.80;85.90
31783;DHT22;18351;47.560;9.708;2023-04-03T14:42:14;7.80;86.20
31783;DHT22;18351;47.560;9.708;2023-04-03T14:44:40;7.70;87.00
31783;DHT22;18351;47.560;9.708;2023-04-03T14:47:10;7.70;88.50
31783;DHT22;18351;47.560;9.708;2023-04-03T14:49:35;7.80;88.00
31783;DHT22;18351;47.560;9.708;2023-04-03T14:52:01;7.80;86.00
31783;DHT22;18351;47.560;9.708;2023-04-03T14:54:26;7.70;86.00
31783;DHT22;18351;47.560;9.708;2023-04-03T14:56:54;7.70;85.90
31783;DHT22;18351;47.560;9.708;2023-04-03T14:59:21;7.60;86.00
31783;DHT22;18351;47.560;9.708;2023-04-03T15:01:47;7.70;88.30
31783;DHT22;18351;47.560;9.708;2023-04-03T15:04:21;7.70;88.20
31783;DHT22;18351;47.560;9.708;2023-04-03T15:06:48;7.70;85.70
31783;DHT22;18351;47.560;9.708;2023-04-03T15:09:23;7.70;87.80
31783;DHT22;18351;47.560;9.708;2023-04-03T15:11:50;7.60;87.30
31783;DHT22;18351;47.560;9.708;2023-04-03T15:14:15;7.50;88.80
31783;DHT22;18351;47.560;9.708;2023-04-03T15:16:41;7.50;90.70
31783;DHT22;18351;47.560;9.708;2023-04-03T15:19:07;7.60;89.40
31783;DHT22;18351;47.560;9.708;2023-04-03T15:21:32;7.60;89.50
31783;DHT22;18351;47.560;9.708;2023-04-03T15:23:58;7.60;90.30
31783;DHT22;18351;47.560;9.708;2023-04-03T15:26:24;7.60;90.50
31783;DHT22;18351;47.560;9.708;2023-04-03T15:28:50;7.60;91.00
31783;DHT22;18351;47.560;9.708;2023-04-03T15:31:16;7.70;89.10
31783;DHT22;18351;47.560;9.708;2023-04-03T15:33:42;7.60;89.60
31783;DHT22;18351;47.560;9.708;2023-04-03T15:36:08;7.50;87.60
31783;DHT22;18351;47.560;9.708;2023-04-03T15:38:34;7.40;87.10
31783;DHT22;18351;47.560;9.708;2023-04-03T15:41:00;7.40;88.90
31783;DHT22;18351;47.560;9.708;2023-04-03T15:43:26;7.30;88.50
31783;DHT22;18351;47.560;9.708;2023-04-03T15:45:51;7.20;89.50
31783;DHT22;18351;47.560;9.708;2023-04-03T15:48:17;7.20;90.20
31783;DHT22;18351;47.560;9.708;2023-04-03T15:50:43;7.10;90.70
31783;DHT22;18351;47.560;9.708;2023-04-03T15:53:10;7.10;90.00
31783;DHT22;18351;47.560;9.708;2023-04-03T15:55:37;7.00;90.50
31783;DHT22;18351;47.560;9.708;2023-04-03T15:58:03;6.90;90.80
31783;DHT22;18351;47.560;9.708;2023-04-03T16:00:30;6.80;90.70
31783;DHT22;18351;47.560;9.708;2023-04-03T16:03:00;6.70;91.00
31783;DHT22;18351;47.560;9.708;2023-04-03T16:05:27;6.70;90.40
31783;DHT22;18351;47.560;9.708;2023-04-03T16:07:53;6.70;90.10
31783;DHT22;18351;47.560;9.708;2023-04-03T16:10:20;6.70;90.80
31783;DHT22;18351;47.560;9.708;2023-04-03T16:12:46;6.70;91.00
31783;DHT22;18351;47.560;9.708;2023-04-03T16:15:12;6.70;91.20
31783;DHT22;18351;47.560;9.708;2023-04-03T16:17:38;6.60;91.20
31783;DHT22;18351;47.560;9.708;2023-04-03T16:20:06;6.60;90.90
31783;DHT22;18351;47.560;9.708;2023-04-03T16:22:32;6.50;91.20
31783;DHT22;18351;47.560;9.708;2023-04-03T16:24:58;6.50;91.90
31783;DHT22;18351;47.560;9.708;2023-04-03T16:27:24;6.50;92.10
31783;DHT22;18351;47.560;9.708;2023-04-03T16:29:54;6.60;91.30
31783;DHT22;18351;47.560;9.708;2023-04-03T16:32:20;6.50;91.50
31783;DHT22;18351;47.560;9.708;2023-04-03T16:34:45;6.50;91.90
31783;DHT22;18351;47.560;9.708;2023-04-03T16:37:11;6.40;91.90
31783;DHT22;18351;47.560;9.708;2023-04-03T16:39:37;6.30;92.30
31783;DHT22;18351;47.560;9.708;2023-04-03T16:42:02;6.30;92.50
31783;DHT22;18351;47.560;9.708;2023-04-03T16:44:28;6.30;92.10
31783;DHT22;18351;47.560;9.708;2023-04-03T16:46:53;6.20;92.00
31783;DHT22;18351;47.560;9.708;2023-04-03T16:49:19;6.10;92.20
31783;DHT22;18351;47.560;9.708;2023-04-03T16:51:44;6.10;92.70
31783;DHT22;18351;47.560;9.708;2023-04-03T16:54:10;6.00;92.80
31783;DHT22;18351;47.560;9.708;2023-04-03T16:56:38;6.00;93.30
31783;DHT22;18351;47.560;9.708;2023-04-03T16:59:04;5.90;92.80
31783;DHT22;18351;47.560;9.708;2023-04-03T17:01:30;5.90;93.00
31783;DHT22;18351;47.560;9.708;2023-04-03T17:03:55;5.80;93.20
31783;DHT22;18351;47.560;9.708;2023-04-03T17:06:22;5.80;93.10
31783;DHT22;18351;47.560;9.708;2023-04-03T17:08:49;5.70;93.90
31783;DHT22;18351;47.560;9.708;2023-04-03T17:11:15;5.70;94.00
31783;DHT22;18351;47.560;9.708;2023-04-03T17:13:41;5.60;94.20
31783;DHT22;18351;47.560;9.708;2023-04-03T17:16:13;5.60;94.60
31783;DHT22;18351;47.560;9.708;2023-04-03T17:18:40;5.60;94.90
31783;DHT22;18351;47.560;9.708;2023-04-03T17:21:07;5.60;95.40
31783;DHT22;18351;47.560;9.708;2023-04-03T17:23:34;5.50;95.30
31783;DHT22;18351;47.560;9.708;2023-04-03T17:26:01;5.50;95.30
31783;DHT22;18351;47.560;9.708;2023-04-03T17:28:26;5.50;95.10
31783;DHT22;18351;47.560;9.708;2023-04-03T17:30:57;5.40;95.60
31783;DHT22;18351;47.560;9.708;2023-04-03T17:33:23;5.40;95.90
31783;DHT22;18351;47.560;9.708;2023-04-03T17:35:49;5.40;96.00
31783;DHT22;18351;47.560;9.708;2023-04-03T17:38:15;5.30;96.50
31783;DHT22;18351;47.560;9.708;2023-04-03T17:40:40;5.30;96.80
31783;DHT22;18351;47.560;9.708;2023-04-03T17:43:06;5.20;97.40